Time;durP1;ratioP1;P1;durP2;ratioP2;P2;SDS_P1;SDS_P2;PMS_P1;PMS_P2;Temp;Humidity;BMP_temperature;BMP_pressure;BME280_temperature;BME280_humidity;BME280_pressure;Samples;Min_cycle;Max_cycle;Signal;HPM_P1;HPM_P2
2021/03/31 00:00:26;;;;;;;23.20;14.10;;;10.60;99.90;;;;;;5034530;28;20410;-78
2021/03/31 00:02:56;;;;;;;17.70;13.27;;;10.60;99.90;;;;;;5015003;28;20409;-76
2021/03/31 00:05:24;;;;;;;18.30;14.00;;;10.60;99.90;;;;;;5015173;28;20384;-75
2021/03/31 00:07:51;;;;;;;19.47;13.40;;;10.50;99.90;;;;;;5014945;28;20465;-76
2021/03/31 00:10:20;;;;;;;18.90;12.83;;;10.50;99.90;;;;;;5014968;28;20395;-75
2021/03/31 00:12:48;;;;;;;19.87;13.33;;;10.40;99.90;;;;;;5014521;28;20384;-77
2021/03/31 00:15:16;;;;;;;17.20;11.33;;;10.40;99.90;;;;;;5014730;28;20414;-77
2021/03/31 00:17:43;;;;;;;16.07;11.57;;;10.30;1.00;;;;;;5014751;28;20458;-77
2021/03/31 00:20:14;;;;;;;20.73;13.17;;;10.30;1.00;;;;;;5014693;28;20414;-78
2021/03/31 00:22:41;;;;;;;18.13;12.53;;;10.30;1.00;;;;;;5014626;28;20417;-78
2021/03/31 00:25:11;;;;;;;21.27;14.15;;;10.20;1.00;;;;;;5014672;28;20425;-76
2021/03/31 00:27:39;;;;;;;20.30;11.60;;;10.20;1.00;;;;;;5014361;28;20233;-76
2021/03/31 00:30:07;;;;;;;21.65;13.07;;;10.20;1.00;;;;;;5014452;28;20483;-76
2021/03/31 00:32:35;;;;;;;20.73;13.60;;;10.10;1.00;;;;;;5014441;28;20194;-74
2021/03/31 00:35:05;;;;;;;17.43;13.30;;;10.00;1.00;;;;;;5014643;28;20277;-76
2021/03/31 00:37:33;;;;;;;20.60;13.48;;;10.10;1.00;;;;;;5014165;28;20422;-75
2021/03/31 00:40:01;;;;;;;24.65;13.20;;;10.00;1.00;;;;;;5014409;28;20174;-76
2021/03/31 00:42:28;;;;;;;19.65;14.20;;;9.90;88.30;;;;;;5014582;28;20652;-77
2021/03/31 00:44:56;;;;;;;20.47;12.90;;;9.90;99.90;;;;;;5014267;28;20178;-77
2021/03/31 00:47:23;;;;;;;22.00;13.07;;;9.80;99.90;;;;;;5014239;28;21037;-76
2021/03/31 00:49:50;;;;;;;15.43;12.20;;;9.80;99.90;;;;;;5014118;28;20217;-76
2021/03/31 00:52:17;;;;;;;23.52;13.52;;;9.80;99.90;;;;;;5014318;28;20469;-76
2021/03/31 00:54:45;;;;;;;16.38;11.98;;;9.70;99.90;;;;;;5012991;28;20182;-76
2021/03/31 00:57:13;;;;;;;22.33;13.32;;;9.70;99.90;;;;;;5014287;28;20214;-77
2021/03/31 00:59:40;;;;;;;18.55;12.77;;;9.70;1.00;;;;;;5017322;28;20171;-76
2021/03/31 01:02:08;;;;;;;24.90;13.52;;;9.70;1.00;;;;;;5018494;28;20184;-76
2021/03/31 01:04:35;;;;;;;20.52;12.82;;;9.70;1.00;;;;;;5018764;28;20669;-76
2021/03/31 01:07:03;;;;;;;23.67;14.20;;;9.70;1.00;;;;;;5018301;28;20704;-76
2021/03/31 01:09:31;;;;;;;20.90;11.95;;;9.70;99.90;;;;;;5013941;28;20603;-75
2021/03/31 01:12:08;;;;;;;20.42;12.27;;;9.70;21.50;;;;;;5013910;28;20232;-77
2021/03/31 01:14:48;;;;;;;19.38;14.27;;;9.60;1.00;;;;;;5013816;28;20178;-75
2021/03/31 01:17:22;;;;;;;21.92;13.25;;;9.60;4.80;;;;;;5013489;28;20700;-75
2021/03/31 01:20:28;;;;;;;19.30;12.30;;;9.60;24.70;;;;;;5012229;28;20545;-76
2021/03/31 01:23:35;;;;;;;23.10;14.20;;;9.50;1.00;;;;;;5013592;28;20182;-75
2021/03/31 01:26:07;;;;;;;18.27;13.77;;;9.60;78.30;;;;;;5013210;28;20190;-78
2021/03/31 01:28:51;;;;;;;18.38;13.32;;;9.50;41.80;;;;;;5013694;28;20202;-76
2021/03/31 01:31:31;;;;;;;15.95;11.23;;;9.50;1.00;;;;;;5013511;28;20228;-76
2021/03/31 01:34:25;;;;;;;18.30;13.23;;;9.50;90.10;;;;;;5013472;28;20185;-76
2021/03/31 01:36:54;;;;;;;14.80;12.00;;;9.40;72.20;;;;;;5013642;28;20213;-75
2021/03/31 01:39:22;;;;;;;18.15;12.68;;;9.40;99.90;;;;;;5013386;28;20186;-75
2021/03/31 01:41:51;;;;;;;15.25;11.30;;;9.40;99.90;;;;;;5012984;28;20182;-75
2021/03/31 01:44:19;;;;;;;18.90;10.85;;;9.30;99.90;;;;;;5013303;28;20633;-75
2021/03/31 01:46:53;;;;;;;19.50;11.73;;;9.30;99.90;;;;;;5013047;28;20216;-76
2021/03/31 01:49:24;;;;;;;14.82;10.98;;;9.30;1.00;;;;;;5013131;28;20575;-77
2021/03/31 01:51:55;;;;;;;21.15;10.10;;;9.30;1.00;;;;;;5012976;28;20190;-76
2021/03/31 01:54:23;;;;;;;13.45;10.32;;;9.30;1.00;;;;;;5013013;28;20174;-78
2021/03/31 01:56:52;;;;;;;23.83;11.73;;;9.30;1.00;;;;;;5012901;28;20218;-76
2021/03/31 01:59:21;;;;;;;19.40;11.73;;;9.30;1.00;;;;;;5013480;28;20170;-77
2021/03/31 02:01:52;;;;;;;15.95;11.98;;;9.30;99.90;;;;;;5014091;28;20225;-76
2021/03/31 02:04:20;;;;;;;14.45;10.65;;;9.20;1.00;;;;;;5015803;28;20178;-76
2021/03/31 02:06:50;;;;;;;19.13;11.77;;;9.20;1.00;;;;;;5013792;28;20213;-78
2021/03/31 02:09:18;;;;;;;15.27;11.13;;;9.20;1.00;;;;;;5014283;28;20557;-77
2021/03/31 02:11:46;;;;;;;17.42;11.35;;;9.20;99.90;;;;;;5013859;28;20178;-76
2021/03/31 02:14:15;;;;;;;20.17;11.32;;;9.20;99.90;;;;;;5013956;28;20630;-76
2021/03/31 02:16:43;;;;;;;17.55;11.10;;;9.20;99.90;;;;;;5013803;28;20587;-76
2021/03/31 02:19:14;;;;;;;24.48;12.93;;;9.10;99.90;;;;;;5013703;28;20189;-77
2021/03/31 02:21:42;;;;;;;16.40;12.50;;;9.10;99.90;;;;;;5014030;28;20179;-76
2021/03/31 02:24:14;;;;;;;13.75;10.32;;;9.10;99.90;;;;;;5013002;28;20190;-77
2021/03/31 02:26:41;;;;;;;16.20;11.20;;;9.20;99.90;;;;;;5014643;28;20720;-77
2021/03/31 02:29:09;;;;;;;16.48;10.98;;;9.10;35.60;;;;;;5014194;28;20214;-77
2021/03/31 02:31:37;;;;;;;19.08;12.25;;;9.00;19.50;;;;;;5025006;28;20236;-75
2021/03/31 02:34:05;;;;;;;13.63;10.00;;;9.00;65.10;;;;;;5020015;28;20194;-74
2021/03/31 02:36:39;;;;;;;18.48;11.63;;;8.90;99.90;;;;;;5018100;28;20602;-76
2021/03/31 02:39:08;;;;;;;16.77;13.18;;;8.90;99.90;;;;;;5020885;28;20264;-76
2021/03/31 02:41:39;;;;;;;18.88;11.30;;;8.90;99.90;;;;;;5039290;28;20261;-81
2021/03/31 02:44:09;;;;;;;21.65;13.07;;;8.90;99.90;;;;;;5041431;28;20173;-81
2021/03/31 02:46:37;;;;;;;17.30;11.10;;;8.90;99.90;;;;;;5041513;28;20202;-81
2021/03/31 02:49:06;;;;;;;17.77;11.88;;;9.00;99.90;;;;;;5041431;28;20198;-81
2021/03/31 02:51:36;;;;;;;18.98;10.45;;;9.00;99.90;;;;;;5041040;28;20182;-82
2021/03/31 02:54:06;;;;;;;21.58;11.32;;;9.00;76.80;;;;;;5042724;28;20170;-79
2021/03/31 02:56:34;;;;;;;19.20;13.27;;;8.90;59.70;;;;;;5060888;28;20276;-78
2021/03/31 02:59:03;;;;;;;20.20;11.35;;;8.90;81.10;;;;;;5059987;28;20161;-77
2021/03/31 03:01:30;;;;;;;18.73;11.75;;;8.90;35.00;;;;;;5060455;28;20237;-78
2021/03/31 03:03:58;;;;;;;22.25;10.93;;;8.80;1.00;;;;;;5060653;28;20186;-81
2021/03/31 03:06:27;;;;;;;17.35;11.55;;;8.80;23.30;;;;;;5060271;28;20209;-81
2021/03/31 03:08:56;;;;;;;18.60;13.63;;;8.80;48.60;;;;;;5060466;28;20185;-80
2021/03/31 03:11:24;;;;;;;19.65;13.27;;;8.80;99.90;;;;;;5051632;28;20675;-75
2021/03/31 03:13:52;;;;;;;13.45;11.07;;;8.70;22.30;;;;;;5048814;28;20181;-76
2021/03/31 03:16:21;;;;;;;17.95;13.50;;;8.70;1.00;;;;;;5050690;28;20220;-75
2021/03/31 03:18:48;;;;;;;15.82;11.98;;;8.60;1.00;;;;;;5041972;28;20192;-76
2021/03/31 03:21:17;;;;;;;19.80;13.98;;;8.70;91.40;;;;;;5034624;28;20216;-75
2021/03/31 03:23:45;;;;;;;19.08;13.10;;;8.80;99.90;;;;;;5036085;28;20547;-75
2021/03/31 03:26:15;;;;;;;30.20;12.15;;;8.90;52.30;;;;;;5035593;28;20177;-75
2021/03/31 03:28:45;;;;;;;18.75;12.10;;;8.90;99.90;;;;;;5035626;28;20607;-76
2021/03/31 03:31:13;;;;;;;19.05;11.57;;;8.90;99.90;;;;;;5035649;28;20181;-75
2021/03/31 03:33:41;;;;;;;19.33;12.55;;;8.80;99.90;;;;;;5035861;28;20196;-75
2021/03/31 03:36:11;;;;;;;15.13;9.70;;;8.80;99.90;;;;;;5035516;28;20182;-75
2021/03/31 03:38:39;;;;;;;16.58;12.40;;;8.70;99.90;;;;;;5035721;28;20186;-78
2021/03/31 03:41:08;;;;;;;18.45;12.05;;;8.60;1.00;;;;;;5035628;28;20264;-76
2021/03/31 03:43:37;;;;;;;18.27;11.80;;;8.60;99.90;;;;;;5035573;28;20588;-76
2021/03/31 03:46:07;;;;;;;16.02;12.32;;;8.70;99.90;;;;;;5035704;28;20170;-76
2021/03/31 03:48:34;;;;;;;18.02;12.02;;;8.70;37.80;;;;;;5034403;28;20208;-76
2021/03/31 03:51:06;;;;;;;15.00;10.43;;;8.70;1.00;;;;;;5035111;28;20264;-76
2021/03/31 03:53:34;;;;;;;15.18;11.18;;;8.70;1.00;;;;;;5035501;28;20174;-75
2021/03/31 03:56:02;;;;;;;14.90;12.52;;;8.70;1.00;;;;;;5035069;28;20181;-76
2021/03/31 03:58:32;;;;;;;17.45;10.63;;;8.60;1.00;;;;;;5034201;28;20190;-76
2021/03/31 04:00:59;;;;;;;21.35;12.93;;;8.60;1.00;;;;;;5035474;28;20649;-78
2021/03/31 04:03:26;;;;;;;17.38;12.20;;;8.50;1.00;;;;;;5035895;28;20178;-77
2021/03/31 04:05:54;;;;;;;19.80;13.48;;;8.50;1.00;;;;;;5036065;28;20216;-76
2021/03/31 04:08:22;;;;;;;18.13;13.10;;;8.50;1.00;;;;;;5039132;28;20190;-75
2021/03/31 04:10:53;;;;;;;17.75;12.05;;;8.40;1.00;;;;;;5054727;28;20177;-76
2021/03/31 04:13:21;;;;;;;20.13;12.40;;;8.30;11.90;;;;;;5054268;28;20192;-76
2021/03/31 04:15:53;;;;;;;18.85;12.82;;;8.30;99.90;;;;;;5054313;28;20161;-76
2021/03/31 04:18:22;;;;;;;26.40;11.65;;;8.30;99.90;;;;;;5034847;28;20192;-75
2021/03/31 04:20:51;;;;;;;19.70;14.20;;;8.30;99.90;;;;;;5035049;28;20536;-75
2021/03/31 04:23:18;;;;;;;18.08;13.73;;;8.30;99.90;;;;;;5035332;28;20671;-76
2021/03/31 04:25:46;;;;;;;20.85;11.90;;;8.30;99.90;;;;;;5035814;28;20643;-77
2021/03/31 04:28:14;;;;;;;20.45;14.77;;;8.40;99.90;;;;;;5040303;28;20221;-78
2021/03/31 04:30:42;;;;;;;20.75;13.25;;;8.40;99.90;;;;;;5048019;28;20212;-77
2021/03/31 04:33:11;;;;;;;22.75;14.00;;;8.50;1.00;;;;;;5057850;28;20176;-82
2021/03/31 04:35:39;;;;;;;22.45;13.48;;;8.50;1.00;;;;;;5055070;28;20181;-79
2021/03/31 04:38:08;;;;;;;26.33;14.55;;;8.60;1.00;;;;;;5055206;28;20210;-77
2021/03/31 04:40:52;;;;;;;21.90;14.65;;;8.60;99.90;;;;;;5051499;28;20184;-77
2021/03/31 04:43:20;;;;;;;15.85;11.23;;;8.60;99.90;;;;;;5037621;28;20182;-75
2021/03/31 04:45:47;;;;;;;21.25;15.98;;;8.60;90.70;;;;;;5033900;28;20194;-76
2021/03/31 04:48:14;;;;;;;17.02;13.30;;;8.60;1.00;;;;;;5035362;28;20228;-76
2021/03/31 04:50:41;;;;;;;20.63;13.23;;;8.60;1.00;;;;;;5034552;28;20181;-76
2021/03/31 04:53:09;;;;;;;23.05;15.10;;;8.60;1.00;;;;;;5034126;28;20240;-75
2021/03/31 04:55:36;;;;;;;18.98;13.27;;;8.60;1.00;;;;;;5033666;28;20193;-79
2021/03/31 04:58:05;;;;;;;16.45;12.65;;;8.70;99.90;;;;;;5032560;28;20319;-76
2021/03/31 05:00:32;;;;;;;20.27;13.63;;;8.70;99.90;;;;;;5034000;28;20174;-76
2021/03/31 05:02:59;;;;;;;18.88;12.75;;;8.70;99.90;;;;;;5033564;28;20208;-75
2021/03/31 05:05:26;;;;;;;19.02;13.10;;;8.70;1.00;;;;;;5033669;28;20181;-75
2021/03/31 05:07:53;;;;;;;28.83;14.52;;;8.80;99.90;;;;;;5033706;28;20222;-76
2021/03/31 05:10:20;;;;;;;21.50;14.73;;;8.80;99.90;;;;;;5033863;28;20201;-75
2021/03/31 05:12:47;;;;;;;23.55;15.50;;;8.80;99.90;;;;;;5033517;28;20593;-75
2021/03/31 05:15:16;;;;;;;21.60;13.05;;;8.80;1.00;;;;;;5032142;28;20547;-75
2021/03/31 05:17:43;;;;;;;15.32;12.90;;;8.90;1.00;;;;;;5033275;28;20213;-76
2021/03/31 05:20:11;;;;;;;16.65;12.35;;;8.90;1.00;;;;;;5033461;28;20193;-76
2021/03/31 05:22:39;;;;;;;21.73;14.25;;;9.00;1.00;;;;;;5033579;28;20391;-75
2021/03/31 05:25:07;;;;;;;17.60;14.38;;;9.10;99.90;;;;;;5034276;28;20181;-76
2021/03/31 05:27:35;;;;;;;21.48;16.42;;;9.10;1.00;;;;;;5028196;28;20228;-75
2021/03/31 05:30:04;;;;;;;23.02;15.73;;;9.20;1.00;;;;;;5034044;28;20562;-75
2021/03/31 05:32:33;;;;;;;24.13;16.63;;;9.20;99.90;;;;;;5034356;28;20589;-76
2021/03/31 05:35:00;;;;;;;20.85;15.30;;;9.30;99.90;;;;;;5041365;28;20177;-77
2021/03/31 05:37:27;;;;;;;22.17;15.00;;;9.30;99.90;;;;;;5047317;28;20209;-76
2021/03/31 05:39:54;;;;;;;21.85;14.60;;;9.40;1.00;;;;;;5044711;28;20185;-76
2021/03/31 05:42:21;;;;;;;20.23;14.82;;;9.50;1.00;;;;;;5036346;28;20212;-78
2021/03/31 05:44:50;;;;;;;20.00;14.25;;;9.60;99.90;;;;;;5032947;28;20189;-76
2021/03/31 05:47:22;;;;;;;20.52;14.73;;;9.70;21.30;;;;;;5032655;28;20210;-76
2021/03/31 05:49:50;;;;;;;15.90;13.57;;;9.80;1.00;;;;;;5032816;28;20224;-76
2021/03/31 05:52:18;;;;;;;30.58;15.82;;;9.80;1.00;;;;;;5033118;28;20182;-78
2021/03/31 05:54:46;;;;;;;21.90;14.00;;;9.80;1.00;;;;;;5032816;28;20231;-77
2021/03/31 05:57:13;;;;;;;19.08;14.35;;;9.80;1.00;;;;;;5033610;28;20216;-77
2021/03/31 05:59:41;;;;;;;17.63;14.45;;;9.90;1.00;;;;;;5034222;28;20540;-77
2021/03/31 06:02:12;;;;;;;21.45;16.63;;;10.00;1.00;;;;;;5033563;28;20179;-76
2021/03/31 06:04:41;;;;;;;22.48;14.98;;;10.10;99.90;;;;;;5033878;28;20191;-76
2021/03/31 06:07:09;;;;;;;30.58;16.88;;;10.20;99.90;;;;;;5034026;28;20722;-77
2021/03/31 06:10:03;;;;;;;22.80;16.33;;;10.40;99.90;;;;;;5032585;28;20240;-79
2021/03/31 06:12:31;;;;;;;19.80;13.63;;;10.50;99.90;;;;;;5032860;28;20186;-78
2021/03/31 06:15:33;;;;;;;20.33;16.17;;;10.70;99.90;;;;;;5033507;28;20445;-76
2021/03/31 06:18:10;;;;;;;21.03;14.87;;;10.90;99.90;;;;;;4999642;28;20460;-78
2021/03/31 06:20:43;;;;;;;23.90;16.93;;;11.10;4.20;;;;;;5033943;28;20409;-75
2021/03/31 06:23:23;;;;;;;20.73;14.30;;;11.30;1.00;;;;;;5033755;28;20416;-77
2021/03/31 06:25:56;;;;;;;18.90;15.00;;;11.50;1.00;;;;;;5033301;28;20435;-76
2021/03/31 06:28:34;;;;;;;22.20;15.30;;;11.70;1.00;;;;;;5033945;28;20468;-78
2021/03/31 06:31:22;;;;;;;20.17;14.30;;;11.90;1.00;;;;;;5034256;28;20411;-75
2021/03/31 06:33:50;;;;;;;23.63;15.50;;;12.10;1.00;;;;;;5032361;28;20424;-76
2021/03/31 06:36:32;;;;;;;23.73;14.70;;;12.30;1.00;;;;;;5020146;28;20484;-79
2021/03/31 06:39:00;;;;;;;17.67;12.53;;;12.40;99.90;;;;;;5013195;28;20416;-79
2021/03/31 06:41:30;;;;;;;24.20;14.70;;;12.60;99.90;;;;;;5012947;28;20390;-80
2021/03/31 06:44:12;;;;;;;24.00;14.13;;;12.80;99.90;;;;;;5014855;28;20429;-78
2021/03/31 06:46:46;;;;;;;20.57;15.03;;;13.00;99.90;;;;;;5027188;28;20974;-78
2021/03/31 06:49:14;;;;;;;18.23;15.60;;;13.20;99.90;;;;;;5031749;28;20435;-79
2021/03/31 06:51:41;;;;;;;21.63;14.57;;;13.20;99.90;;;;;;5034805;28;20435;-80
2021/03/31 06:54:15;;;;;;;16.70;14.57;;;13.30;99.90;;;;;;5033102;28;20452;-79
2021/03/31 06:56:45;;;;;;;25.60;14.83;;;13.40;99.90;;;;;;5030859;28;20492;-77
2021/03/31 06:59:13;;;;;;;16.53;13.60;;;13.50;99.90;;;;;;5034227;28;20394;-78
2021/03/31 07:01:40;;;;;;;17.17;14.13;;;13.70;99.90;;;;;;5031024;28;20502;-78
2021/03/31 07:04:08;;;;;;;20.43;15.50;;;13.80;99.90;;;;;;5029137;28;20846;-79
2021/03/31 07:06:36;;;;;;;18.13;14.77;;;13.90;99.90;;;;;;5033929;28;20834;-79
2021/03/31 07:09:18;;;;;;;19.70;14.60;;;14.10;99.90;;;;;;5038948;28;20437;-79
2021/03/31 07:11:46;;;;;;;18.27;14.77;;;14.30;1.00;;;;;;5025547;28;20820;-78
2021/03/31 07:14:13;;;;;;;20.93;13.37;;;14.50;1.00;;;;;;5031996;28;20971;-78
2021/03/31 07:16:42;;;;;;;21.70;14.43;;;14.60;37.20;;;;;;5033386;28;20970;-77
2021/03/31 07:19:11;;;;;;;20.83;14.00;;;14.70;99.90;;;;;;5032373;28;20388;-78
2021/03/31 07:21:59;;;;;;;19.70;13.87;;;14.90;1.00;;;;;;5031936;28;20748;-78
2021/03/31 07:24:26;;;;;;;14.67;13.13;;;15.00;1.00;;;;;;5036108;28;20842;-77
2021/03/31 07:26:55;;;;;;;21.63;15.60;;;15.10;99.90;;;;;;5036039;28;20867;-79
2021/03/31 07:29:25;;;;;;;25.33;15.13;;;15.30;1.00;;;;;;5035127;28;20526;-78
2021/03/31 07:31:54;;;;;;;19.43;13.50;;;15.40;1.00;;;;;;5036982;28;20435;-79
2021/03/31 07:34:27;;;;;;;19.57;13.50;;;15.60;1.00;;;;;;5036019;28;20420;-79
2021/03/31 07:36:55;;;;;;;20.20;14.10;;;15.70;99.90;;;;;;5035979;28;20450;-79
2021/03/31 07:39:29;;;;;;;20.13;13.00;;;15.80;25.20;;;;;;5037047;28;20430;-80
2021/03/31 07:41:58;;;;;;;14.57;11.50;;;15.90;99.90;;;;;;5036043;28;20776;-80
2021/03/31 07:44:30;;;;;;;19.30;13.60;;;16.00;99.90;;;;;;5036724;28;20432;-79
2021/03/31 07:47:00;;;;;;;28.53;15.63;;;16.10;99.90;;;;;;5036873;28;20419;-78
2021/03/31 07:49:28;;;;;;;16.90;11.80;;;16.30;99.90;;;;;;5035598;28;20465;-79
2021/03/31 07:52:01;;;;;;;21.83;14.30;;;16.40;1.00;;;;;;5035883;28;20485;-79
2021/03/31 07:54:29;;;;;;;14.40;11.47;;;16.50;45.40;;;;;;5037108;28;20490;-79
2021/03/31 07:56:58;;;;;;;14.10;10.37;;;16.60;23.60;;;;;;5035797;28;20459;-79
2021/03/31 07:59:25;;;;;;;11.60;8.90;;;16.70;99.90;;;;;;5034981;28;20486;-79
2021/03/31 08:01:54;;;;;;;20.03;11.37;;;16.70;99.90;;;;;;5037098;28;20873;-78
2021/03/31 08:04:23;;;;;;;16.13;9.37;;;16.80;99.90;;;;;;5034758;28;20424;-79
2021/03/31 08:06:51;;;;;;;14.80;10.10;;;16.90;99.90;;;;;;5036417;28;20415;-81
2021/03/31 08:09:27;;;;;;;24.10;10.67;;;17.00;99.90;;;;;;5035494;28;20496;-80
2021/03/31 08:11:57;;;;;;;14.70;10.80;;;17.00;99.90;;;;;;5035141;28;20583;-78
2021/03/31 08:14:45;;;;;;;17.37;11.40;;;17.10;99.90;;;;;;5034077;28;20421;-80
2021/03/31 08:17:33;;;;;;;22.27;10.57;;;17.30;99.90;;;;;;5036182;28;20437;-79
2021/03/31 08:20:01;;;;;;;19.40;9.37;;;17.50;99.90;;;;;;5042660;28;20376;-79
2021/03/31 08:22:37;;;;;;;15.80;8.47;;;17.60;99.90;;;;;;5036914;28;20430;-79
2021/03/31 08:25:21;;;;;;;14.93;9.40;;;17.80;99.90;;;;;;5038976;28;20796;-79
2021/03/31 08:28:01;;;;;;;14.67;8.87;;;17.80;99.90;;;;;;5037626;28;20423;-79
2021/03/31 08:30:29;;;;;;;16.60;9.57;;;17.90;99.90;;;;;;5038935;28;20447;-79
2021/03/31 08:32:56;;;;;;;17.87;8.47;;;18.10;99.90;;;;;;5038517;28;20494;-79
2021/03/31 08:35:25;;;;;;;18.57;9.60;;;18.30;99.90;;;;;;5035841;28;20424;-80
2021/03/31 08:37:53;;;;;;;14.40;8.97;;;18.40;99.90;;;;;;5036664;28;20803;-78
2021/03/31 08:40:21;;;;;;;15.77;9.80;;;18.50;99.90;;;;;;5034974;28;20491;-81
2021/03/31 08:43:10;;;;;;;17.60;9.90;;;18.50;99.90;;;;;;5036948;28;20424;-78
2021/03/31 08:45:41;;;;;;;16.97;10.20;;;18.60;99.90;;;;;;5036929;28;20409;-81
2021/03/31 08:48:09;;;;;;;14.40;9.70;;;18.60;99.90;;;;;;5035026;28;20999;-80
2021/03/31 08:50:40;;;;;;;21.10;11.40;;;18.60;99.90;;;;;;5032906;28;20479;-77
2021/03/31 08:53:12;;;;;;;14.47;10.70;;;18.70;99.90;;;;;;5034072;28;20430;-76
2021/03/31 08:55:41;;;;;;;20.63;10.90;;;18.80;99.90;;;;;;5034275;28;20957;-77
2021/03/31 08:58:11;;;;;;;20.73;11.10;;;18.90;99.90;;;;;;5038213;28;20534;-80
2021/03/31 09:00:46;;;;;;;13.97;10.60;;;18.90;99.90;;;;;;5040431;28;20408;-81
2021/03/31 09:03:14;;;;;;;20.00;11.27;;;19.00;99.90;;;;;;5040541;28;20416;-81
2021/03/31 09:05:57;;;;;;;15.40;9.67;;;19.20;99.90;;;;;;5035972;28;20497;-78
2021/03/31 09:08:25;;;;;;;13.40;9.83;;;19.30;99.90;;;;;;5033989;28;20409;-77
2021/03/31 09:11:00;;;;;;;15.93;10.50;;;19.40;99.90;;;;;;5033528;28;20448;-80
2021/03/31 09:13:31;;;;;;;17.43;11.37;;;19.50;99.90;;;;;;5031714;28;20426;-78
2021/03/31 09:16:00;;;;;;;11.70;8.60;;;19.60;99.90;;;;;;5033837;28;20826;-78
2021/03/31 09:18:27;;;;;;;19.83;11.03;;;19.70;99.90;;;;;;5023280;28;20814;-77
2021/03/31 09:20:55;;;;;;;15.20;9.97;;;19.80;99.90;;;;;;5033334;28;20922;-78
2021/03/31 09:23:24;;;;;;;16.03;11.37;;;19.90;99.90;;;;;;5033823;28;20412;-77
2021/03/31 09:25:59;;;;;;;16.37;10.17;;;20.00;99.90;;;;;;5033528;28;20438;-80
2021/03/31 09:28:26;;;;;;;17.93;9.00;;;20.10;99.90;;;;;;5036894;28;20400;-80
2021/03/31 09:30:57;;;;;;;17.17;12.37;;;20.10;99.90;;;;;;5036849;28;20464;-79
2021/03/31 09:33:27;;;;;;;28.00;10.83;;;20.10;99.90;;;;;;5035896;28;20413;-80
2021/03/31 09:36:15;;;;;;;16.17;11.07;;;20.20;99.90;;;;;;5034239;28;20445;-81
2021/03/31 09:38:46;;;;;;;19.33;10.93;;;20.20;99.90;;;;;;5034611;28;20413;-79
2021/03/31 09:41:17;;;;;;;16.97;10.27;;;20.30;99.90;;;;;;5035337;28;20438;-79
2021/03/31 09:43:48;;;;;;;19.20;12.30;;;20.40;99.90;;;;;;5036613;28;20399;-79
2021/03/31 09:46:21;;;;;;;18.23;9.87;;;20.40;99.90;;;;;;5037115;28;20451;-79
2021/03/31 09:48:50;;;;;;;19.33;11.30;;;20.50;99.90;;;;;;5036838;28;20404;-81
2021/03/31 09:51:18;;;;;;;14.20;9.53;;;20.60;99.90;;;;;;5035947;28;20443;-78
2021/03/31 09:53:46;;;;;;;23.30;13.43;;;20.80;99.90;;;;;;5036140;28;20420;-79
2021/03/31 09:56:15;;;;;;;20.73;11.83;;;20.90;99.90;;;;;;5036973;28;20455;-80
2021/03/31 09:58:46;;;;;;;17.63;11.90;;;21.00;99.90;;;;;;5037569;28;20978;-79
2021/03/31 10:01:15;;;;;;;19.97;12.17;;;21.10;99.90;;;;;;5039371;28;20419;-81
2021/03/31 10:03:45;;;;;;;23.23;12.17;;;21.10;99.90;;;;;;5036590;28;20443;-79
2021/03/31 10:06:20;;;;;;;21.90;12.07;;;21.20;99.90;;;;;;5035671;28;20444;-78
2021/03/31 10:08:48;;;;;;;19.90;12.00;;;21.20;99.90;;;;;;5037742;28;20423;-79
2021/03/31 10:11:27;;;;;;;20.70;12.20;;;21.30;99.90;;;;;;5054798;28;20451;-82
2021/03/31 10:13:54;;;;;;;21.97;11.70;;;21.40;99.90;;;;;;5053044;28;20811;-80
2021/03/31 10:16:34;;;;;;;18.80;12.60;;;21.60;99.90;;;;;;5048610;28;20478;-80
2021/03/31 10:19:04;;;;;;;22.80;13.73;;;21.80;99.90;;;;;;5034764;28;20458;-79
2021/03/31 10:21:32;;;;;;;20.17;12.53;;;21.80;99.90;;;;;;5035939;28;20849;-79
2021/03/31 10:24:00;;;;;;;21.90;11.90;;;21.90;99.90;;;;;;5035372;28;20428;-79
2021/03/31 10:26:49;;;;;;;19.27;11.47;;;21.90;99.90;;;;;;5034964;28;20455;-79
2021/03/31 10:29:54;;;;;;;16.27;11.23;;;21.90;99.90;;;;;;5033415;28;20451;-79
2021/03/31 10:32:42;;;;;;;15.20;10.53;;;21.80;99.90;;;;;;5034806;28;20748;-78
2021/03/31 10:35:12;;;;;;;15.80;10.80;;;21.80;99.90;;;;;;5037446;28;20931;-79
2021/03/31 10:37:42;;;;;;;18.77;11.97;;;21.90;99.90;;;;;;5035720;28;20464;-81
2021/03/31 10:40:49;;;;;;;18.10;10.43;;;21.80;99.90;;;;;;5035535;28;20954;-78
2021/03/31 10:49:14;;;;;;;16.90;10.03;;;22.10;99.90;;;;;;5035194;28;20410;-80
2021/03/31 10:51:54;;;;;;;14.83;9.63;;;22.10;99.90;;;;;;5038456;28;20420;-79
2021/03/31 10:54:25;;;;;;;12.17;8.10;;;22.30;99.90;;;;;;5038811;28;20436;-78
2021/03/31 10:57:04;;;;;;;19.20;9.90;;;22.30;99.90;;;;;;5041821;28;20471;-81
2021/03/31 10:59:32;;;;;;;16.83;9.40;;;22.30;99.90;;;;;;5039607;28;20443;-80
2021/03/31 11:01:59;;;;;;;12.20;8.90;;;22.30;99.90;;;;;;5030367;28;20448;-76
2021/03/31 11:04:26;;;;;;;16.23;8.60;;;22.20;99.90;;;;;;5015752;28;20405;-77
2021/03/31 11:06:54;;;;;;;13.37;8.43;;;22.10;99.90;;;;;;5015046;28;20449;-76
2021/03/31 11:09:22;;;;;;;15.70;9.00;;;22.30;99.90;;;;;;5017253;28;20865;-76
2021/03/31 11:11:49;;;;;;;13.80;8.57;;;22.40;99.90;;;;;;5016123;28;20857;-77
2021/03/31 11:14:17;;;;;;;16.87;9.97;;;22.60;99.90;;;;;;5017209;28;20421;-78
2021/03/31 11:16:51;;;;;;;18.70;9.67;;;22.80;99.90;;;;;;5017970;28;20519;-79
2021/03/31 11:19:35;;;;;;;13.90;8.57;;;22.80;99.90;;;;;;5024404;28;20436;-77
2021/03/31 11:27:30;;;;;;;12.33;7.90;;;22.60;99.90;;;;;;5037646;28;20423;-77
2021/03/31 11:30:02;;;;;;;13.23;6.97;;;22.40;99.90;;;;;;5035857;28;20466;-79
2021/03/31 11:32:29;;;;;;;14.07;8.73;;;22.60;99.90;;;;;;5035466;28;20503;-76
2021/03/31 11:34:57;;;;;;;14.67;7.30;;;22.80;99.90;;;;;;5036787;28;20945;-77
2021/03/31 11:37:26;;;;;;;18.90;10.13;;;22.90;99.90;;;;;;5038024;28;20506;-77
2021/03/31 11:39:53;;;;;;;23.20;8.40;;;22.90;99.90;;;;;;5042966;28;20466;-78
2021/03/31 11:42:20;;;;;;;12.53;8.70;;;22.80;99.90;;;;;;5044284;28;20454;-79
2021/03/31 11:44:47;;;;;;;16.17;7.90;;;22.80;99.90;;;;;;5043223;28;20433;-79
2021/03/31 11:47:14;;;;;;;12.90;7.43;;;23.00;99.90;;;;;;5043143;28;20444;-78
2021/03/31 11:49:45;;;;;;;16.43;8.97;;;23.10;99.90;;;;;;5039583;28;20893;-77
2021/03/31 11:52:12;;;;;;;12.80;9.20;;;23.30;99.90;;;;;;5036612;28;20436;-76
2021/03/31 11:54:40;;;;;;;12.53;8.53;;;23.30;99.90;;;;;;5035358;28;20413;-79
2021/03/31 11:57:07;;;;;;;10.20;8.30;;;23.20;99.90;;;;;;5036466;28;20456;-79
2021/03/31 11:59:34;;;;;;;13.30;7.50;;;23.20;99.90;;;;;;5040937;28;20595;-80
2021/03/31 12:02:02;;;;;;;12.67;6.87;;;23.20;99.90;;;;;;5041925;28;20474;-78
2021/03/31 12:04:29;;;;;;;11.37;7.00;;;23.30;99.90;;;;;;5043684;28;20419;-80
2021/03/31 12:06:56;;;;;;;10.03;7.70;;;23.30;99.90;;;;;;5043353;28;20455;-79
2021/03/31 12:09:23;;;;;;;14.40;8.60;;;23.40;99.90;;;;;;5042604;28;20570;-78
2021/03/31 12:11:51;;;;;;;13.17;7.80;;;23.50;99.90;;;;;;5043968;28;20425;-80
2021/03/31 12:14:19;;;;;;;11.10;7.87;;;23.30;99.90;;;;;;5044209;28;20424;-78
2021/03/31 12:16:46;;;;;;;15.00;8.37;;;23.20;99.90;;;;;;5042269;28;20440;-78
2021/03/31 12:19:14;;;;;;;14.10;9.70;;;23.10;99.90;;;;;;5039239;28;20425;-79
2021/03/31 12:21:41;;;;;;;16.47;9.30;;;23.20;99.90;;;;;;5039799;28;20424;-78
2021/03/31 12:24:09;;;;;;;10.90;6.77;;;23.20;99.90;;;;;;5039216;28;20444;-79
2021/03/31 12:26:36;;;;;;;11.13;6.80;;;23.30;99.90;;;;;;5040778;28;20470;-78
2021/03/31 12:29:04;;;;;;;12.37;7.27;;;23.50;99.90;;;;;;5039776;28;20450;-80
2021/03/31 12:31:32;;;;;;;11.10;7.20;;;23.60;99.90;;;;;;5041541;28;20412;-79
2021/03/31 12:33:59;;;;;;;7.97;5.63;;;23.70;99.90;;;;;;5039263;28;20460;-80
2021/03/31 12:36:26;;;;;;;11.23;7.27;;;23.60;99.90;;;;;;5041225;28;20448;-80
2021/03/31 12:38:53;;;;;;;11.00;7.30;;;23.70;99.90;;;;;;5046728;28;20432;-80
2021/03/31 12:41:20;;;;;;;13.07;6.90;;;23.60;99.90;;;;;;5050247;28;20424;-79
2021/03/31 12:43:47;;;;;;;19.00;7.43;;;23.70;99.90;;;;;;5043144;28;20729;-79
2021/03/31 12:46:15;;;;;;;12.10;6.27;;;23.80;99.90;;;;;;5046960;28;20471;-80
2021/03/31 12:48:43;;;;;;;14.20;7.60;;;23.80;99.90;;;;;;5044337;28;20436;-79
2021/03/31 12:51:13;;;;;;;13.40;9.73;;;24.00;99.90;;;;;;5042873;28;20463;-79
2021/03/31 12:53:43;;;;;;;13.20;8.20;;;24.00;99.90;;;;;;5041466;28;20403;-78
2021/03/31 12:56:10;;;;;;;16.97;8.20;;;23.90;99.90;;;;;;5041180;28;20408;-80
2021/03/31 12:58:40;;;;;;;13.03;6.03;;;23.90;99.90;;;;;;5042465;28;20420;-80
2021/03/31 13:01:13;;;;;;;12.10;6.43;;;23.80;99.90;;;;;;5040887;28;20439;-78
2021/03/31 13:03:41;;;;;;;15.40;6.40;;;23.90;99.90;;;;;;5040869;28;20423;-81